Apiliotis — SYVY — position and weather

sailwx.info

Track history (hours):
 
Tides and Currents Weather Stations Pressure Air Temp Water Temp Dewpoint Dewpoint Depression Visibility Wind Speed Wind Dir Waves Ship Positions

Apiliotis

Last reported at 2014-Jul-21 03:31 UTC. Time now 2014-Jul-22 21:38 UTC.
Position N 39°53' E 025°03'.

Length 79 m; draft 4.5 m.

Type: Ship. MMSI: 240438000.

Date/timePositionNaut miles runAvg speedWind from/ knotsBaromVisibWave heightAir tempDewpointWater temp
2014-Jul-21 03:31N 39°53' E 025°03'0 0.0
2014-Jul-21 02:21N 39°53' E 025°03'0 0.0
2014-Jul-21 01:30N 39°53' E 025°03'0 0.0
2014-Jul-20 23:28N 39°53' E 025°03'0 0.0
2014-Jul-20 22:20N 39°53' E 025°03'0 0.0
2014-Jul-20 19:09N 39°53' E 025°03'8 9.9
2014-Jul-20 18:21N 39°50' E 024°53'911.1
2014-Jul-20 17:31N 39°46' E 024°42'2411.5
2014-Jul-20 15:27N 39°36' E 024°14'104 2.5
2014-Jul-18 22:27N 38°01' E 025°10'1011.5
2014-Jul-18 21:33N 37°52' E 025°17'1211.2
2014-Jul-18 20:31N 37°42' E 025°25'1111.3
2014-Jul-18 19:33N 37°33' E 025°33'1111.0
2014-Jul-18 18:33N 37°24' E 025°40'1110.9
2014-Jul-18 17:33N 37°15' E 025°47'1110.7
2014-Jul-18 16:33N 37°05' E 025°53'1111.1
2014-Jul-18 15:34N 36°54' E 025°57'1 1.2
2014-Jul-18 14:33N 36°54' E 025°59'0 0.0
2014-Jul-18 13:33N 36°54' E 025°59'0 0.0
2014-Jul-18 12:33N 36°54' E 025°59'0 0.0
2014-Jul-18 11:32N 36°54' E 025°59'0 0.0
2014-Jul-18 10:33N 36°54' E 025°59'0 0.0
2014-Jul-18 09:33N 36°54' E 025°59'0 0.0
2014-Jul-18 08:33N 36°54' E 025°59'0 0.0
2014-Jul-18 07:28N 36°54' E 025°59'0 0.0
2014-Jul-18 06:30N 36°54' E 025°59'0 0.0
2014-Jul-18 05:33N 36°54' E 025°59'0 0.0
2014-Jul-18 04:33N 36°54' E 025°59'2 2.4
2014-Jul-18 03:33N 36°54' E 025°55'6 6.5
2014-Jul-18 02:33N 36°52' E 025°48'7 6.5
2014-Jul-18 01:33N 36°48' E 025°42'6 6.1
2014-Jul-18 00:33N 36°43' E 025°37'7 7.4
2014-Jul-17 23:33N 36°37' E 025°31'8 7.9
2014-Jul-17 22:31N 36°32' E 025°24'6 6.1
2014-Jul-17 21:31N 36°25' E 025°24'3 2.6
2014-Jul-17 20:33N 36°23' E 025°26'0 0.0
2014-Jul-17 19:33N 36°23' E 025°26'5 4.5
2014-Jul-17 18:33N 36°27' E 025°22'1212.0
2014-Jul-17 17:33N 36°33' E 025°09'1110.8
2014-Jul-17 16:33N 36°37' E 024°57'0 0.0
2014-Jul-17 15:33N 36°37' E 024°57'3 2.5
2014-Jul-17 14:33N 36°39' E 024°55'1211.7
2014-Jul-17 13:33N 36°43' E 024°42'1211.7
2014-Jul-17 12:33N 36°47' E 024°28'4 0.4
2014-Jul-17 03:31N 36°44' E 024°24'1010.1
2014-Jul-17 02:33N 36°53' E 024°30'13 1.3
2014-Jul-16 16:33N 37°03' E 024°39'1212.2
2014-Jul-16 15:33N 37°05' E 024°54'1111.1
2014-Jul-16 14:33N 37°05' E 025°08'1 0.7
2014-Jul-16 13:32N 37°05' E 025°09'0 0.0
2014-Jul-16 12:30N 37°05' E 025°09'0 0.0
2014-Jul-16 11:33N 37°05' E 025°09'0 0.0
2014-Jul-16 10:33N 37°05' E 025°09'0 0.4
2014-Jul-16 09:20N 37°05' E 025°08'1 0.9
2014-Jul-16 08:32N 37°05' E 025°08'10 9.8
2014-Jul-16 07:33N 37°09' E 025°19'4 4.3
2014-Jul-16 06:33N 37°06' E 025°22'0 0.4
2014-Jul-16 05:33N 37°06' E 025°22'0 0.0
2014-Jul-16 04:33N 37°06' E 025°22'0 0.0
2014-Jul-16 03:33N 37°06' E 025°22'3 3.3
2014-Jul-16 02:33N 37°09' E 025°20'1010.0
2014-Jul-16 01:33N 37°14' E 025°09'1010.3
2014-Jul-16 00:33N 37°18' E 024°57'10 9.7
2014-Jul-15 23:33N 37°22' E 024°46'1010.2
2014-Jul-15 22:34N 37°27' E 024°35'11 7.5
2014-Jul-15 21:09N 37°25' E 024°21'2 0.6
2014-Jul-15 17:17N 37°26' E 024°19'2312.5
2014-Jul-15 15:26N 37°35' E 023°52'1112.2
2014-Jul-15 14:33N 37°41' E 023°41'1212.3
2014-Jul-15 13:33N 37°53' E 023°37'10 9.8
2014-Jul-15 12:33N 38°02' E 023°32'0 0.1
2014-Jul-15 11:33N 38°02' E 023°32'0 0.0
2014-Jul-15 10:33N 38°02' E 023°32'0 0.0
2014-Jul-15 09:33N 38°02' E 023°32'1 0.6
2014-Jul-15 08:33N 38°02' E 023°33'0 0.0
2014-Jul-15 07:33N 38°02' E 023°33'0 0.1
2014-Jul-15 06:33N 38°02' E 023°32'0 0.0
2014-Jul-15 05:33N 38°02' E 023°32'0 0.0
2014-Jul-15 04:33N 38°02' E 023°32'0 0.0
2014-Jul-15 03:33N 38°02' E 023°32'0 0.0
2014-Jul-15 02:33N 38°02' E 023°32'0 0.0
2014-Jul-15 01:33N 38°02' E 023°32'0 0.0
2014-Jul-15 00:33N 38°02' E 023°32'0 0.0
2014-Jul-14 23:33N 38°02' E 023°32'0 0.0
2014-Jul-14 22:33N 38°02' E 023°32'0 0.0
2014-Jul-14 21:33N 38°02' E 023°32'0 0.1
2014-Jul-14 20:33N 38°02' E 023°32'0 0.0
2014-Jul-14 19:33N 38°02' E 023°32'3 2.6
2014-Jul-14 18:33N 38°02' E 023°36'0 0.0
2014-Jul-14 17:32N 38°02' E 023°36'0 0.0
2014-Jul-14 16:33N 38°02' E 023°36'0 0.0
2014-Jul-14 15:29N 38°02' E 023°36'0 0.0
2014-Jul-14 14:32N 38°02' E 023°36'0 0.0
2014-Jul-14 13:31N 38°02' E 023°36'0 0.0
2014-Jul-14 12:21N 38°02' E 023°36'0 0.0
2014-Jul-14 11:26N 38°02' E 023°36'0 0.2
2014-Jul-14 10:33N 38°02' E 023°35'2 2.3
2014-Jul-14 09:32N 38°02' E 023°33'0 0.0
2014-Jul-14 08:32N 38°02' E 023°33'0 0.0
2014-Jul-14 07:31N 38°02' E 023°33'0 0.1
2014-Jul-14 06:33N 38°02' E 023°32'7 0.3
2014-Jul-13 04:33N 37°55' E 023°36'6 6.3
2014-Jul-13 03:33N 37°50' E 023°40'1310.4
2014-Jul-13 02:17N 37°38' E 023°48'910.2
2014-Jul-13 01:25N 37°35' E 023°58'8 9.3
2014-Jul-13 00:33N 37°32' E 024°08'1110.1
2014-Jul-12 23:29N 37°31' E 024°21'1010.7
2014-Jul-12 22:32N 37°31' E 024°34'1111.0
2014-Jul-12 21:33N 37°32' E 024°48'1110.8
2014-Jul-12 20:33N 37°31' E 025°01'1111.0
2014-Jul-12 19:33N 37°29' E 025°15'4 4.0
2014-Jul-12 18:33N 37°28' E 025°20'0 0.0
2014-Jul-12 17:34N 37°28' E 025°20'0 0.0
2014-Jul-12 16:32N 37°28' E 025°20'0 0.0
2014-Jul-12 15:33N 37°28' E 025°20'1 0.6
2014-Jul-12 14:33N 37°28' E 025°19'7 7.2
2014-Jul-12 13:33N 37°22' E 025°25'1111.2
2014-Jul-12 12:33N 37°20' E 025°39'1110.9
2014-Jul-12 11:33N 37°19' E 025°52'1111.1
2014-Jul-12 10:33N 37°18' E 026°06'1111.1
2014-Jul-12 09:32N 37°17' E 026°20'1111.0
2014-Jul-12 08:33N 37°15' E 026°34'4 4.1
2014-Jul-12 07:33N 37°19' E 026°33'0 0.0
2014-Jul-12 06:31N 37°19' E 026°33'0 0.0
2014-Jul-12 05:33N 37°19' E 026°33'0 0.0
2014-Jul-12 04:33N 37°19' E 026°33'24 2.0
2014-Jul-11 16:32N 37°00' E 026°50'1311.5
2014-Jul-11 15:23N 36°47' E 026°53'9 1.5
2014-Jul-11 09:12N 36°40' E 026°59'711.5
2014-Jul-11 08:33N 36°40' E 026°50'1211.7
2014-Jul-11 07:33N 36°40' E 026°36'1211.8
2014-Jul-11 06:33N 36°38' E 026°21'  
Track history (hours):
 
Tides and Currents Weather Stations Pressure Air Temp Water Temp Dewpoint Dewpoint Depression Visibility Wind Speed Wind Dir Waves Ship Positions

Apiliotis

Last reported at 2014-Jul-21 03:31 UTC. Time now 2014-Jul-22 21:38 UTC.
Position N 39°53' E 025°03'.

Length 79 m; draft 4.5 m.

Type: Ship. MMSI: 240438000.

Date/timePositionNaut miles runAvg speedWind from/ knotsBaromVisibWave heightAir tempDewpointWater temp
2014-Jul-21 03:31N 39°53' E 025°03'0 0.0
2014-Jul-21 02:21N 39°53' E 025°03'0 0.0
2014-Jul-21 01:30N 39°53' E 025°03'0 0.0
2014-Jul-20 23:28N 39°53' E 025°03'0 0.0
2014-Jul-20 22:20N 39°53' E 025°03'0 0.0
2014-Jul-20 19:09N 39°53' E 025°03'8 9.9
2014-Jul-20 18:21N 39°50' E 024°53'911.1
2014-Jul-20 17:31N 39°46' E 024°42'2411.5
2014-Jul-20 15:27N 39°36' E 024°14'104 2.5
2014-Jul-18 22:27N 38°01' E 025°10'1011.5
2014-Jul-18 21:33N 37°52' E 025°17'1211.2
2014-Jul-18 20:31N 37°42' E 025°25'1111.3
2014-Jul-18 19:33N 37°33' E 025°33'1111.0
2014-Jul-18 18:33N 37°24' E 025°40'1110.9
2014-Jul-18 17:33N 37°15' E 025°47'1110.7
2014-Jul-18 16:33N 37°05' E 025°53'1111.1
2014-Jul-18 15:34N 36°54' E 025°57'1 1.2
2014-Jul-18 14:33N 36°54' E 025°59'0 0.0
2014-Jul-18 13:33N 36°54' E 025°59'0 0.0
2014-Jul-18 12:33N 36°54' E 025°59'0 0.0
2014-Jul-18 11:32N 36°54' E 025°59'0 0.0
2014-Jul-18 10:33N 36°54' E 025°59'0 0.0
2014-Jul-18 09:33N 36°54' E 025°59'0 0.0
2014-Jul-18 08:33N 36°54' E 025°59'0 0.0
2014-Jul-18 07:28N 36°54' E 025°59'0 0.0
2014-Jul-18 06:30N 36°54' E 025°59'0 0.0
2014-Jul-18 05:33N 36°54' E 025°59'0 0.0
2014-Jul-18 04:33N 36°54' E 025°59'2 2.4
2014-Jul-18 03:33N 36°54' E 025°55'6 6.5
2014-Jul-18 02:33N 36°52' E 025°48'7 6.5
2014-Jul-18 01:33N 36°48' E 025°42'6 6.1
2014-Jul-18 00:33N 36°43' E 025°37'7 7.4
2014-Jul-17 23:33N 36°37' E 025°31'8 7.9
2014-Jul-17 22:31N 36°32' E 025°24'6 6.1
2014-Jul-17 21:31N 36°25' E 025°24'3 2.6
2014-Jul-17 20:33N 36°23' E 025°26'0 0.0
2014-Jul-17 19:33N 36°23' E 025°26'5 4.5
2014-Jul-17 18:33N 36°27' E 025°22'1212.0
2014-Jul-17 17:33N 36°33' E 025°09'1110.8
2014-Jul-17 16:33N 36°37' E 024°57'0 0.0
2014-Jul-17 15:33N 36°37' E 024°57'3 2.5
2014-Jul-17 14:33N 36°39' E 024°55'1211.7
2014-Jul-17 13:33N 36°43' E 024°42'1211.7
2014-Jul-17 12:33N 36°47' E 024°28'4 0.4
2014-Jul-17 03:31N 36°44' E 024°24'1010.1
2014-Jul-17 02:33N 36°53' E 024°30'13 1.3
2014-Jul-16 16:33N 37°03' E 024°39'1212.2
2014-Jul-16 15:33N 37°05' E 024°54'1111.1
2014-Jul-16 14:33N 37°05' E 025°08'1 0.7
2014-Jul-16 13:32N 37°05' E 025°09'0 0.0
2014-Jul-16 12:30N 37°05' E 025°09'0 0.0
2014-Jul-16 11:33N 37°05' E 025°09'0 0.0
2014-Jul-16 10:33N 37°05' E 025°09'0 0.4
2014-Jul-16 09:20N 37°05' E 025°08'1 0.9
2014-Jul-16 08:32N 37°05' E 025°08'10 9.8
2014-Jul-16 07:33N 37°09' E 025°19'4 4.3
2014-Jul-16 06:33N 37°06' E 025°22'0 0.4
2014-Jul-16 05:33N 37°06' E 025°22'0 0.0
2014-Jul-16 04:33N 37°06' E 025°22'0 0.0
2014-Jul-16 03:33N 37°06' E 025°22'3 3.3
2014-Jul-16 02:33N 37°09' E 025°20'1010.0
2014-Jul-16 01:33N 37°14' E 025°09'1010.3
2014-Jul-16 00:33N 37°18' E 024°57'10 9.7
2014-Jul-15 23:33N 37°22' E 024°46'1010.2
2014-Jul-15 22:34N 37°27' E 024°35'11 7.5
2014-Jul-15 21:09N 37°25' E 024°21'2 0.6
2014-Jul-15 17:17N 37°26' E 024°19'2312.5
2014-Jul-15 15:26N 37°35' E 023°52'1112.2
2014-Jul-15 14:33N 37°41' E 023°41'1212.3
2014-Jul-15 13:33N 37°53' E 023°37'10 9.8
2014-Jul-15 12:33N 38°02' E 023°32'0 0.1
2014-Jul-15 11:33N 38°02' E 023°32'0 0.0
2014-Jul-15 10:33N 38°02' E 023°32'0 0.0
2014-Jul-15 09:33N 38°02' E 023°32'1 0.6
2014-Jul-15 08:33N 38°02' E 023°33'0 0.0
2014-Jul-15 07:33N 38°02' E 023°33'0 0.1
2014-Jul-15 06:33N 38°02' E 023°32'0 0.0
2014-Jul-15 05:33N 38°02' E 023°32'0 0.0
2014-Jul-15 04:33N 38°02' E 023°32'0 0.0
2014-Jul-15 03:33N 38°02' E 023°32'0 0.0
2014-Jul-15 02:33N 38°02' E 023°32'0 0.0
2014-Jul-15 01:33N 38°02' E 023°32'0 0.0
2014-Jul-15 00:33N 38°02' E 023°32'0 0.0
2014-Jul-14 23:33N 38°02' E 023°32'0 0.0
2014-Jul-14 22:33N 38°02' E 023°32'0 0.0
2014-Jul-14 21:33N 38°02' E 023°32'0 0.1
2014-Jul-14 20:33N 38°02' E 023°32'0 0.0
2014-Jul-14 19:33N 38°02' E 023°32'3 2.6
2014-Jul-14 18:33N 38°02' E 023°36'0 0.0
2014-Jul-14 17:32N 38°02' E 023°36'0 0.0
2014-Jul-14 16:33N 38°02' E 023°36'0 0.0
2014-Jul-14 15:29N 38°02' E 023°36'0 0.0
2014-Jul-14 14:32N 38°02' E 023°36'0 0.0
2014-Jul-14 13:31N 38°02' E 023°36'0 0.0
2014-Jul-14 12:21N 38°02' E 023°36'0 0.0
2014-Jul-14 11:26N 38°02' E 023°36'0 0.2
2014-Jul-14 10:33N 38°02' E 023°35'2 2.3
2014-Jul-14 09:32N 38°02' E 023°33'0 0.0
2014-Jul-14 08:32N 38°02' E 023°33'0 0.0
2014-Jul-14 07:31N 38°02' E 023°33'0 0.1
2014-Jul-14 06:33N 38°02' E 023°32'7 0.3
2014-Jul-13 04:33N 37°55' E 023°36'6 6.3
2014-Jul-13 03:33N 37°50' E 023°40'1310.4
2014-Jul-13 02:17N 37°38' E 023°48'910.2
2014-Jul-13 01:25N 37°35' E 023°58'8 9.3
2014-Jul-13 00:33N 37°32' E 024°08'1110.1
2014-Jul-12 23:29N 37°31' E 024°21'1010.7
2014-Jul-12 22:32N 37°31' E 024°34'1111.0
2014-Jul-12 21:33N 37°32' E 024°48'1110.8
2014-Jul-12 20:33N 37°31' E 025°01'1111.0
2014-Jul-12 19:33N 37°29' E 025°15'4 4.0
2014-Jul-12 18:33N 37°28' E 025°20'0 0.0
2014-Jul-12 17:34N 37°28' E 025°20'0 0.0
2014-Jul-12 16:32N 37°28' E 025°20'0 0.0
2014-Jul-12 15:33N 37°28' E 025°20'1 0.6
2014-Jul-12 14:33N 37°28' E 025°19'7 7.2
2014-Jul-12 13:33N 37°22' E 025°25'1111.2
2014-Jul-12 12:33N 37°20' E 025°39'1110.9
2014-Jul-12 11:33N 37°19' E 025°52'1111.1
2014-Jul-12 10:33N 37°18' E 026°06'1111.1
2014-Jul-12 09:32N 37°17' E 026°20'1111.0
2014-Jul-12 08:33N 37°15' E 026°34'4 4.1
2014-Jul-12 07:33N 37°19' E 026°33'0 0.0
2014-Jul-12 06:31N 37°19' E 026°33'0 0.0
2014-Jul-12 05:33N 37°19' E 026°33'0 0.0
2014-Jul-12 04:33N 37°19' E 026°33'24 2.0
2014-Jul-11 16:32N 37°00' E 026°50'1311.5
2014-Jul-11 15:23N 36°47' E 026°53'9 1.5
2014-Jul-11 09:12N 36°40' E 026°59'711.5
2014-Jul-11 08:33N 36°40' E 026°50'1211.7
2014-Jul-11 07:33N 36°40' E 026°36'1211.8
2014-Jul-11 06:33N 36°38' E 026°21'  

Dump ship's entire track history